createdAt,value
2022-12-07T00:00:55.828Z,9.80
2022-12-07T00:03:22.398Z,10.52
2022-12-07T00:05:48.947Z,11.35
2022-12-07T00:08:15.578Z,10.52
2022-12-07T00:10:42.366Z,10.20
2022-12-07T00:13:08.816Z,10.13
2022-12-07T00:15:35.910Z,11.00
2022-12-07T00:18:02.522Z,11.52
2022-12-07T00:20:28.983Z,10.90
2022-12-07T00:22:55.385Z,9.98
2022-12-07T00:25:21.771Z,10.90
2022-12-07T00:27:48.274Z,11.40
2022-12-07T00:30:14.841Z,10.55
2022-12-07T00:32:41.254Z,11.43
2022-12-07T00:35:07.882Z,11.20
2022-12-07T00:37:34.283Z,12.02
2022-12-07T00:40:01.070Z,11.55
2022-12-07T00:42:27.757Z,12.63
2022-12-07T00:44:54.237Z,10.80
2022-12-07T00:47:20.698Z,11.02
2022-12-07T00:49:47.156Z,11.45
2022-12-07T00:52:13.695Z,10.32
2022-12-07T00:54:40.675Z,10.25
2022-12-07T00:57:07.108Z,10.02
2022-12-07T00:59:33.541Z,9.10
2022-12-07T01:02:00.047Z,9.63
2022-12-07T01:04:30.781Z,10.27
2022-12-07T01:06:57.161Z,10.00
2022-12-07T01:09:24.718Z,10.50
2022-12-07T01:11:51.218Z,10.93
2022-12-07T01:14:17.659Z,9.20
2022-12-07T01:16:44.103Z,9.70
2022-12-07T01:19:10.595Z,9.98
2022-12-07T01:21:38.556Z,9.43
2022-12-07T01:24:06.711Z,9.30
2022-12-07T01:26:33.372Z,9.18
2022-12-07T01:29:02.024Z,9.07
2022-12-07T01:31:28.997Z,8.15
2022-12-07T01:33:57.080Z,8.65
2022-12-07T01:36:24.866Z,8.30
2022-12-07T01:38:53.607Z,8.52
2022-12-07T01:41:21.115Z,8.82
2022-12-07T01:44:20.001Z,9.10
2022-12-07T01:46:47.639Z,8.27
2022-12-07T01:49:19.819Z,8.57
2022-12-07T01:51:47.384Z,10.20
2022-12-07T01:54:14.727Z,9.00
2022-12-07T01:56:43.916Z,8.75
2022-12-07T01:59:10.763Z,9.90
2022-12-07T02:01:37.295Z,8.98
2022-12-07T02:04:03.968Z,8.70
2022-12-07T02:06:31.194Z,9.43
2022-12-07T02:08:57.708Z,9.05
2022-12-07T02:11:24.337Z,8.70
2022-12-07T02:13:50.895Z,8.55
2022-12-07T02:16:30.314Z,9.13
2022-12-07T02:19:05.612Z,8.13
2022-12-07T02:21:37.408Z,7.78
2022-12-07T02:24:25.854Z,9.98
2022-12-07T02:27:07.561Z,8.82
2022-12-07T02:29:48.116Z,8.85
2022-12-07T02:32:23.339Z,8.93
2022-12-07T02:34:51.810Z,8.10
2022-12-07T02:37:24.400Z,8.65
2022-12-07T02:39:56.906Z,8.52
2022-12-07T02:42:29.788Z,8.38
2022-12-07T02:44:56.338Z,8.43
2022-12-07T02:47:25.149Z,8.48
2022-12-07T02:49:52.157Z,9.15
2022-12-07T02:52:18.897Z,8.65
2022-12-07T02:54:45.332Z,8.88
2022-12-07T02:57:24.097Z,8.77
2022-12-07T03:00:13.557Z,8.45
2022-12-07T03:02:43.114Z,8.98
2022-12-07T03:05:15.474Z,9.30
2022-12-07T03:08:00.636Z,9.32
2022-12-07T03:10:45.834Z,9.25
2022-12-07T03:13:21.524Z,8.05
2022-12-07T03:15:54.854Z,8.77
2022-12-07T03:18:22.795Z,9.68
2022-12-07T03:20:50.925Z,8.38
2022-12-07T03:23:18.747Z,8.52
2022-12-07T03:25:47.819Z,7.32
2022-12-07T03:28:16.562Z,7.15
2022-12-07T03:30:55.716Z,8.52
2022-12-07T03:33:28.076Z,6.40
2022-12-07T03:36:03.355Z,6.35
2022-12-07T03:38:32.432Z,5.88
2022-12-07T03:41:01.640Z,5.95
2022-12-07T03:43:31.634Z,5.80
2022-12-07T03:45:58.034Z,6.70
2022-12-07T03:48:41.942Z,6.15
2022-12-07T03:53:37.323Z,5.28
2022-12-07T03:56:04.610Z,6.18
2022-12-07T03:58:31.170Z,5.90
2022-12-07T04:00:57.952Z,6.03
2022-12-07T04:03:24.583Z,5.82
2022-12-07T04:05:51.189Z,6.05
2022-12-07T04:08:17.752Z,7.30
2022-12-07T04:10:44.242Z,5.90
2022-12-07T04:13:10.660Z,6.10
2022-12-07T04:15:37.518Z,6.30
2022-12-07T04:18:03.943Z,8.05
2022-12-07T04:20:30.368Z,6.70
2022-12-07T04:22:56.793Z,7.57
2022-12-07T04:25:23.212Z,6.35
2022-12-07T04:27:49.873Z,5.90
2022-12-07T04:30:16.319Z,6.78
2022-12-07T04:32:42.877Z,6.15
2022-12-07T04:35:09.507Z,6.63
2022-12-07T04:37:36.066Z,6.53
2022-12-07T04:40:03.083Z,6.22
2022-12-07T04:42:29.743Z,6.63
2022-12-07T04:44:56.124Z,6.25
2022-12-07T04:47:22.562Z,6.55
2022-12-07T04:49:49.002Z,6.35
2022-12-07T04:52:15.455Z,6.18
2022-12-07T04:54:41.922Z,5.82
2022-12-07T04:57:08.468Z,6.95
2022-12-07T04:59:34.941Z,6.38
2022-12-07T05:02:01.495Z,7.35
2022-12-07T05:04:28.076Z,6.90
2022-12-07T05:06:54.537Z,7.10
2022-12-07T05:09:20.987Z,6.30
2022-12-07T05:11:47.482Z,6.50
2022-12-07T05:14:18.301Z,6.78
2022-12-07T05:16:45.940Z,7.32
2022-12-07T05:19:12.606Z,6.90
2022-12-07T05:21:39.670Z,5.70
2022-12-07T05:24:06.594Z,6.57
2022-12-07T05:26:33.051Z,6.60
2022-12-07T05:28:59.517Z,7.32
2022-12-07T05:31:26.487Z,8.63
2022-12-07T05:33:53.379Z,6.93
2022-12-07T05:36:20.190Z,7.05
2022-12-07T05:38:47.032Z,6.60
2022-12-07T05:41:34.983Z,6.40
2022-12-07T05:44:01.729Z,6.18
2022-12-07T05:46:28.117Z,6.00
2022-12-07T05:48:54.545Z,7.07
2022-12-07T05:51:20.991Z,5.88
2022-12-07T05:53:47.410Z,6.40
2022-12-07T05:56:13.934Z,6.20
2022-12-07T05:58:59.067Z,6.30
2022-12-07T06:01:25.474Z,6.25
2022-12-07T06:03:51.943Z,6.68
2022-12-07T06:06:18.486Z,6.70
2022-12-07T06:08:45.006Z,7.13
2022-12-07T06:11:30.299Z,5.95
2022-12-07T06:13:56.705Z,7.20
2022-12-07T06:16:23.257Z,6.82
2022-12-07T06:18:49.690Z,7.13
2022-12-07T06:21:16.146Z,5.65
2022-12-07T06:23:42.807Z,6.68
2022-12-07T06:26:09.180Z,6.70
2022-12-07T06:28:35.610Z,7.18
2022-12-07T06:31:02.743Z,7.15
2022-12-07T06:33:29.565Z,8.07
2022-12-07T06:35:56.002Z,7.90
2022-12-07T06:38:22.451Z,6.55
2022-12-07T06:40:49.315Z,7.25
2022-12-07T06:43:15.744Z,6.97
2022-12-07T06:45:42.551Z,6.78
2022-12-07T06:48:09.060Z,6.88
2022-12-07T06:50:35.474Z,7.50
2022-12-07T06:53:01.910Z,7.68
2022-12-07T06:55:28.366Z,7.43
2022-12-07T06:57:54.773Z,8.43
2022-12-07T07:00:22.409Z,7.47
2022-12-07T07:02:49.352Z,9.93
2022-12-07T07:05:16.763Z,8.23
2022-12-07T07:08:05.380Z,8.70
2022-12-07T07:10:29.873Z,8.70
2022-12-07T07:12:57.791Z,10.02
2022-12-07T07:15:24.496Z,9.20
2022-12-07T07:17:50.944Z,9.25
2022-12-07T07:20:17.408Z,10.02
2022-12-07T07:22:43.998Z,9.93
2022-12-07T07:25:10.422Z,11.68
2022-12-07T07:27:36.956Z,11.57
2022-12-07T07:30:04.154Z,12.10
2022-12-07T07:32:30.735Z,12.15
2022-12-07T07:34:57.319Z,12.00
2022-12-07T07:37:24.001Z,11.07
2022-12-07T07:39:50.434Z,11.73
2022-12-07T07:42:16.918Z,13.13
2022-12-07T07:44:43.409Z,12.52
2022-12-07T07:47:09.885Z,10.65
2022-12-07T07:49:36.321Z,10.77
2022-12-07T07:52:02.804Z,9.43
2022-12-07T07:54:29.241Z,9.90
2022-12-07T07:56:55.659Z,8.77
2022-12-07T07:59:22.189Z,8.88
2022-12-07T08:01:48.634Z,8.80
2022-12-07T08:04:15.128Z,9.13
2022-12-07T08:06:43.110Z,8.00
2022-12-07T08:09:10.267Z,8.00
2022-12-07T08:11:37.607Z,8.82
2022-12-07T08:14:04.544Z,8.43
2022-12-07T08:16:31.228Z,8.90
2022-12-07T08:18:57.876Z,7.38
2022-12-07T08:21:24.313Z,9.38
2022-12-07T08:23:50.787Z,9.05
2022-12-07T08:26:17.576Z,10.40
2022-12-07T08:28:45.710Z,9.27
2022-12-07T08:31:13.316Z,9.07
2022-12-07T08:33:39.819Z,8.77
2022-12-07T08:36:07.788Z,10.02
2022-12-07T08:38:38.014Z,8.30
2022-12-07T08:41:04.887Z,8.52
2022-12-07T08:43:31.745Z,7.25
2022-12-07T08:46:11.713Z,8.70
2022-12-07T08:48:55.350Z,7.68
2022-12-07T08:51:22.606Z,7.55
2022-12-07T08:53:49.602Z,7.90
2022-12-07T08:56:16.131Z,6.68
2022-12-07T08:58:42.631Z,5.97
2022-12-07T09:01:09.228Z,6.32
2022-12-07T09:03:35.849Z,6.82
2022-12-07T09:06:02.539Z,7.35
2022-12-07T09:08:34.535Z,8.23
2022-12-07T09:11:00.942Z,7.35
2022-12-07T09:13:27.405Z,8.00
2022-12-07T09:15:54.080Z,7.78
2022-12-07T09:18:20.718Z,7.80
2022-12-07T09:20:47.123Z,7.70
2022-12-07T09:23:13.645Z,6.85
2022-12-07T09:25:40.148Z,6.95
2022-12-07T09:28:06.611Z,6.80
2022-12-07T09:30:42.654Z,6.43
2022-12-07T09:33:19.537Z,6.20
2022-12-07T09:35:47.084Z,7.50
2022-12-07T09:38:14.180Z,6.13
2022-12-07T09:40:41.396Z,6.47
2022-12-07T09:43:13.183Z,6.65
2022-12-07T09:45:43.201Z,6.45
2022-12-07T09:48:20.152Z,6.07
2022-12-07T09:50:48.108Z,6.85
2022-12-07T09:53:17.796Z,7.45
2022-12-07T09:55:45.280Z,8.32
2022-12-07T09:58:23.156Z,7.72
2022-12-07T10:00:51.401Z,8.65
2022-12-07T10:03:17.881Z,8.60
2022-12-07T10:05:46.709Z,7.72
2022-12-07T10:08:14.025Z,8.00
2022-12-07T10:10:41.101Z,8.73
2022-12-07T10:13:08.892Z,7.05
2022-12-07T10:15:42.319Z,6.70
2022-12-07T10:18:29.439Z,7.13
2022-12-07T10:21:13.807Z,5.53
2022-12-07T10:23:59.336Z,5.95
2022-12-07T10:26:31.367Z,7.32
2022-12-07T10:29:00.674Z,6.10
2022-12-07T10:31:27.547Z,5.47
2022-12-07T10:33:55.888Z,5.82
2022-12-07T10:36:22.314Z,5.53
2022-12-07T10:38:52.058Z,4.72
2022-12-07T10:41:18.681Z,6.07
2022-12-07T10:43:52.701Z,5.85
2022-12-07T10:46:30.237Z,4.65
2022-12-07T10:49:06.637Z,4.10
2022-12-07T10:52:08.653Z,4.43
2022-12-07T10:54:46.843Z,3.80
2022-12-07T10:57:13.448Z,3.55
2022-12-07T10:59:42.995Z,4.03
2022-12-07T11:02:09.458Z,3.58
2022-12-07T11:04:42.213Z,4.00
2022-12-07T11:07:24.150Z,4.18
2022-12-07T11:13:02.746Z,6.10
2022-12-07T11:15:32.381Z,4.93
2022-12-07T11:18:07.169Z,5.32
2022-12-07T11:20:33.798Z,4.75
2022-12-07T11:23:06.031Z,4.35
2022-12-07T11:25:52.942Z,4.38
2022-12-07T11:28:19.586Z,4.53
2022-12-07T11:31:12.304Z,4.75
2022-12-07T11:33:45.239Z,4.32
2022-12-07T11:36:24.077Z,4.90
2022-12-07T11:38:57.050Z,4.80
2022-12-07T11:41:36.247Z,5.07
2022-12-07T11:44:27.043Z,3.65
2022-12-07T11:47:05.778Z,3.70
2022-12-07T11:49:42.963Z,3.65
2022-12-07T11:52:16.174Z,2.67
2022-12-07T11:54:44.143Z,2.55
2022-12-07T11:57:20.404Z,2.60
2022-12-07T11:59:50.070Z,2.72
2022-12-07T12:02:18.140Z,2.78
2022-12-07T12:04:44.740Z,2.90
2022-12-07T12:10:06.264Z,2.88
2022-12-07T12:15:42.469Z,2.90
2022-12-07T12:18:21.367Z,2.78
2022-12-07T12:20:50.267Z,3.13
2022-12-07T12:23:21.720Z,3.40
2022-12-07T12:25:57.084Z,2.75
2022-12-07T12:28:26.617Z,3.15
2022-12-07T12:31:11.979Z,2.65
2022-12-07T12:33:38.944Z,2.55
2022-12-07T12:36:14.558Z,2.50
2022-12-07T12:39:14.559Z,3.30
2022-12-07T12:41:50.373Z,2.70
2022-12-07T12:44:16.928Z,3.22
2022-12-07T12:46:49.992Z,3.63
2022-12-07T12:49:16.958Z,2.80
2022-12-07T12:51:44.882Z,2.63
2022-12-07T12:54:21.661Z,3.55
2022-12-07T12:57:06.671Z,3.35
2022-12-07T12:59:40.506Z,3.25
2022-12-07T13:02:13.166Z,3.22
2022-12-07T13:05:00.186Z,3.20
2022-12-07T13:07:45.886Z,2.92
2022-12-07T13:10:21.536Z,3.22
2022-12-07T13:12:57.489Z,3.60
2022-12-07T13:15:39.232Z,3.38
2022-12-07T13:18:05.673Z,3.72
2022-12-07T13:20:52.422Z,3.63
2022-12-07T13:23:38.921Z,2.17
2022-12-07T13:26:25.033Z,2.70
2022-12-07T13:29:03.867Z,3.03
2022-12-07T13:31:34.997Z,2.70
2022-12-07T13:34:02.231Z,3.30
2022-12-07T13:36:32.728Z,3.40
2022-12-07T13:39:00.024Z,2.83
2022-12-07T13:41:30.161Z,3.13
2022-12-07T13:44:04.725Z,3.13
2022-12-07T13:46:43.443Z,2.40
2022-12-07T13:49:20.688Z,2.17
2022-12-07T13:51:47.497Z,2.42
2022-12-07T13:54:14.582Z,2.63
2022-12-07T13:56:41.639Z,2.80
2022-12-07T13:59:16.886Z,2.17
2022-12-07T14:01:44.356Z,2.42
2022-12-07T14:04:26.295Z,3.47
2022-12-07T14:06:52.801Z,2.30
2022-12-07T14:09:20.794Z,2.38
2022-12-07T14:11:48.726Z,2.40
2022-12-07T14:14:17.835Z,2.40
2022-12-07T14:16:44.440Z,2.47
2022-12-07T14:19:47.978Z,2.83
2022-12-07T14:22:24.656Z,2.58
2022-12-07T14:24:51.301Z,3.20
2022-12-07T14:27:20.928Z,4.07
2022-12-07T14:29:48.247Z,2.45
2022-12-07T14:32:17.664Z,2.60
2022-12-07T14:34:53.800Z,2.63
2022-12-07T14:37:20.278Z,2.15
2022-12-07T14:39:46.939Z,2.33
2022-12-07T14:42:13.402Z,2.47
2022-12-07T14:44:39.818Z,3.03
2022-12-07T14:49:52.725Z,2.53
2022-12-07T14:55:27.827Z,2.33
2022-12-07T14:57:54.795Z,2.88
2022-12-07T15:00:22.074Z,2.22
2022-12-07T15:02:49.587Z,2.30
2022-12-07T15:05:17.315Z,1.80
2022-12-07T15:07:44.657Z,1.98
2022-12-07T15:10:22.118Z,2.50
2022-12-07T15:12:50.504Z,2.65
2022-12-07T15:15:18.173Z,2.42
2022-12-07T15:17:44.613Z,3.03
2022-12-07T15:20:15.350Z,2.72
2022-12-07T15:22:41.772Z,2.83
2022-12-07T15:25:09.593Z,2.40
2022-12-07T15:27:36.054Z,3.13
2022-12-07T15:30:02.514Z,3.50
2022-12-07T15:32:29.078Z,3.90
2022-12-07T15:34:55.668Z,3.17
2022-12-07T15:37:22.184Z,3.63
2022-12-07T15:39:48.571Z,4.13
2022-12-07T15:42:15.007Z,4.07
2022-12-07T15:45:00.410Z,3.33
2022-12-07T15:47:27.663Z,5.13
2022-12-07T15:49:54.134Z,5.20
2022-12-07T15:52:20.561Z,4.43
2022-12-07T15:54:48.396Z,3.78
2022-12-07T15:57:14.850Z,4.10
2022-12-07T15:59:41.280Z,3.80
2022-12-07T16:02:09.087Z,5.45
2022-12-07T16:04:35.578Z,4.60
2022-12-07T16:07:02.094Z,4.07
2022-12-07T16:09:28.634Z,5.05
2022-12-07T16:11:55.326Z,4.60
2022-12-07T16:14:22.262Z,4.78
2022-12-07T16:16:48.853Z,5.35
2022-12-07T16:19:15.282Z,6.07
2022-12-07T16:21:41.720Z,5.53
2022-12-07T16:24:08.598Z,5.90
2022-12-07T16:26:35.004Z,5.70
2022-12-07T16:29:01.464Z,5.90
2022-12-07T16:31:28.367Z,5.05
2022-12-07T16:33:56.200Z,4.80
2022-12-07T16:36:55.225Z,4.97
2022-12-07T16:39:11.774Z,4.32
2022-12-07T16:41:38.266Z,4.85
2022-12-07T16:44:06.001Z,6.65
2022-12-07T16:46:33.632Z,6.10
2022-12-07T16:49:00.137Z,6.28
2022-12-07T16:51:26.923Z,6.80
2022-12-07T16:53:53.468Z,6.55
2022-12-07T16:56:19.944Z,6.95
2022-12-07T16:58:48.665Z,6.20
2022-12-07T17:01:16.597Z,6.60
2022-12-07T17:03:43.173Z,6.07
2022-12-07T17:06:16.673Z,5.93
2022-12-07T17:08:43.581Z,6.38
2022-12-07T17:11:11.183Z,5.40
2022-12-07T17:13:56.649Z,5.75
2022-12-07T17:16:23.243Z,5.22
2022-12-07T17:18:49.852Z,6.07
2022-12-07T17:21:16.280Z,5.68
2022-12-07T17:23:42.753Z,5.32
2022-12-07T17:26:10.886Z,6.35
2022-12-07T17:28:37.856Z,5.18
2022-12-07T17:31:08.933Z,5.30
2022-12-07T17:33:38.271Z,4.93
2022-12-07T17:36:15.115Z,5.85
2022-12-07T17:38:42.071Z,6.03
2022-12-07T17:41:11.998Z,5.43
2022-12-07T17:43:42.009Z,6.50
2022-12-07T17:46:11.784Z,6.88
2022-12-07T17:48:38.448Z,6.03
2022-12-07T17:51:23.642Z,6.57
2022-12-07T17:53:51.255Z,6.93
2022-12-07T17:56:28.455Z,8.38
2022-12-07T17:58:55.332Z,8.02
2022-12-07T18:01:24.086Z,7.70
2022-12-07T18:03:51.405Z,8.52
2022-12-07T18:06:17.904Z,9.07
2022-12-07T18:08:44.392Z,8.60
2022-12-07T18:11:11.097Z,7.80
2022-12-07T18:13:38.020Z,8.35
2022-12-07T18:16:05.977Z,7.05
2022-12-07T18:18:32.477Z,7.50
2022-12-07T18:20:58.946Z,6.18
2022-12-07T18:23:26.075Z,6.45
2022-12-07T18:25:52.992Z,6.93
2022-12-07T18:28:20.848Z,5.32
2022-12-07T18:33:40.066Z,4.65
2022-12-07T18:36:07.600Z,4.20
2022-12-07T18:38:34.058Z,5.10
2022-12-07T18:41:01.247Z,5.30
2022-12-07T18:43:27.817Z,4.95
2022-12-07T18:45:56.176Z,4.82
2022-12-07T18:48:23.611Z,4.35
2022-12-07T18:51:10.272Z,5.65
2022-12-07T18:53:37.018Z,6.00
2022-12-07T18:56:04.453Z,5.38
2022-12-07T18:58:30.907Z,4.10
2022-12-07T19:00:57.786Z,5.13
2022-12-07T19:03:28.602Z,4.53
2022-12-07T19:06:01.231Z,4.22
2022-12-07T19:08:27.998Z,5.00
2022-12-07T19:10:54.641Z,6.55
2022-12-07T19:13:21.194Z,6.35
2022-12-07T19:15:47.880Z,6.72
2022-12-07T19:18:14.573Z,6.53
2022-12-07T19:20:41.140Z,5.68
2022-12-07T19:23:07.778Z,6.20
2022-12-07T19:25:34.426Z,5.75
2022-12-07T19:28:00.952Z,6.00
2022-12-07T19:30:27.570Z,5.93
2022-12-07T19:32:54.092Z,5.85
2022-12-07T19:35:20.672Z,5.97
2022-12-07T19:37:47.312Z,6.80
2022-12-07T19:40:13.822Z,6.20
2022-12-07T19:42:43.362Z,6.47
2022-12-07T19:45:10.165Z,7.38
2022-12-07T19:47:36.877Z,7.20
2022-12-07T19:50:03.532Z,6.13
2022-12-07T19:52:36.461Z,6.50
2022-12-07T19:55:03.880Z,6.53
2022-12-07T19:57:30.749Z,6.30
2022-12-07T19:59:58.603Z,5.97
2022-12-07T20:02:25.290Z,5.82
2022-12-07T20:04:58.661Z,6.53
2022-12-07T20:07:32.194Z,8.18
2022-12-07T20:10:06.675Z,7.10
2022-12-07T20:12:54.979Z,7.45
2022-12-07T20:15:26.422Z,7.55
2022-12-07T20:17:53.248Z,7.25
2022-12-07T20:20:19.892Z,6.65
2022-12-07T20:22:46.629Z,6.70
2022-12-07T20:25:16.123Z,7.28
2022-12-07T20:27:42.745Z,6.57
2022-12-07T20:30:09.649Z,6.85
2022-12-07T20:32:36.273Z,7.18
2022-12-07T20:35:03.123Z,7.47
2022-12-07T20:37:30.047Z,8.13
2022-12-07T20:39:56.685Z,8.48
2022-12-07T20:42:38.600Z,6.18
2022-12-07T20:45:08.488Z,7.07
2022-12-07T20:47:36.573Z,7.20
2022-12-07T20:50:04.536Z,8.48
2022-12-07T20:52:31.268Z,8.13
2022-12-07T20:54:57.877Z,8.73
2022-12-07T20:57:24.721Z,10.40
2022-12-07T20:59:51.405Z,9.90
2022-12-07T21:02:18.019Z,10.55
2022-12-07T21:04:44.624Z,11.15
2022-12-07T21:07:11.553Z,11.00
2022-12-07T21:09:38.244Z,10.88
2022-12-07T21:12:04.910Z,12.13
2022-12-07T21:14:31.373Z,13.10
2022-12-07T21:16:58.326Z,14.02
2022-12-07T21:19:25.100Z,13.57
2022-12-07T21:21:52.115Z,15.30
2022-12-07T21:24:18.608Z,14.88
2022-12-07T21:26:45.231Z,14.68
2022-12-07T21:29:11.929Z,14.82
2022-12-07T21:31:38.546Z,15.13
2022-12-07T21:34:05.290Z,15.10
2022-12-07T21:36:32.203Z,15.10
2022-12-07T21:38:58.936Z,14.73
2022-12-07T21:41:43.682Z,15.13
2022-12-07T21:44:20.210Z,14.40
2022-12-07T21:46:46.809Z,15.65
2022-12-07T21:49:19.005Z,14.75
2022-12-07T21:51:45.867Z,17.52
2022-12-07T21:54:13.344Z,17.02
2022-12-07T21:56:45.386Z,18.42
2022-12-07T21:59:13.772Z,19.88
2022-12-07T22:01:41.301Z,19.70
2022-12-07T22:04:09.126Z,20.77
2022-12-07T22:06:36.733Z,22.30
2022-12-07T22:09:03.919Z,21.77
2022-12-07T22:11:30.561Z,22.27
2022-12-07T22:14:17.508Z,20.67
2022-12-07T22:16:44.188Z,21.63
2022-12-07T22:19:10.670Z,22.85
2022-12-07T22:21:37.359Z,21.77
2022-12-07T22:24:04.274Z,23.00
2022-12-07T22:26:31.106Z,22.25
2022-12-07T22:28:57.857Z,23.10
2022-12-07T22:31:24.746Z,23.77
2022-12-07T22:33:51.593Z,24.45
2022-12-07T22:36:18.580Z,23.65
2022-12-07T22:38:48.109Z,24.73
2022-12-07T22:41:24.863Z,24.02
2022-12-07T22:43:52.108Z,23.73
2022-12-07T22:46:18.765Z,23.95
2022-12-07T22:48:45.260Z,22.67
2022-12-07T22:51:21.774Z,23.30
2022-12-07T22:53:48.517Z,22.77
2022-12-07T22:56:15.037Z,22.30
2022-12-07T22:58:41.683Z,21.55
2022-12-07T23:01:09.050Z,21.48
2022-12-07T23:03:35.650Z,21.30
2022-12-07T23:06:06.793Z,21.77
2022-12-07T23:08:33.236Z,21.77
2022-12-07T23:10:59.613Z,22.83
2022-12-07T23:13:32.158Z,22.90
2022-12-07T23:16:07.504Z,21.13
2022-12-07T23:18:34.104Z,22.77
2022-12-07T23:21:00.450Z,22.55
2022-12-07T23:23:26.899Z,23.83
2022-12-07T23:25:53.473Z,24.70
2022-12-07T23:28:19.981Z,23.75
2022-12-07T23:30:46.422Z,23.58
2022-12-07T23:33:12.844Z,23.33
2022-12-07T23:35:39.279Z,23.52
2022-12-07T23:38:05.681Z,24.13
2022-12-07T23:40:32.086Z,24.88
2022-12-07T23:42:58.503Z,23.90
2022-12-07T23:45:24.952Z,23.90
2022-12-07T23:47:51.336Z,24.95
2022-12-07T23:50:17.783Z,24.25
2022-12-07T23:52:44.201Z,24.77
2022-12-07T23:55:10.652Z,23.50
2022-12-07T23:57:37.077Z,25.65
